createdAt,value
2022-07-30T00:00:37.215Z,99677.59
2022-07-30T00:03:03.806Z,99673.97
2022-07-30T00:05:30.206Z,99685.47
2022-07-30T00:07:56.639Z,99687.06
2022-07-30T00:10:23.181Z,99684.44
2022-07-30T00:12:49.898Z,99682.91
2022-07-30T00:15:16.334Z,99682.19
2022-07-30T00:17:42.858Z,99670.34
2022-07-30T00:20:13.532Z,99673.50
2022-07-30T00:22:40.378Z,99668.13
2022-07-30T00:25:07.267Z,99671.81
2022-07-30T00:27:35.176Z,99667.50
2022-07-30T00:30:02.720Z,99663.66
2022-07-30T00:32:29.299Z,99664.31
2022-07-30T00:34:55.724Z,99652.59
2022-07-30T00:37:22.298Z,99645.75
2022-07-30T00:39:48.811Z,99655.63
2022-07-30T00:42:15.317Z,99640.44
2022-07-30T00:44:41.736Z,99645.50
2022-07-30T00:47:08.196Z,99639.31
2022-07-30T00:49:34.622Z,99643.00
2022-07-30T00:52:01.037Z,99643.34
2022-07-30T00:54:29.082Z,99637.84
2022-07-30T00:56:55.485Z,99643.69
2022-07-30T00:59:21.896Z,99652.53
2022-07-30T01:01:48.881Z,99639.72
2022-07-30T01:04:15.354Z,99647.56
2022-07-30T01:06:41.785Z,99644.88
2022-07-30T01:09:08.594Z,99644.91
2022-07-30T01:11:39.837Z,99651.44
2022-07-30T01:14:08.186Z,99652.59
2022-07-30T01:16:58.225Z,99645.56
2022-07-30T01:19:48.499Z,99645.09
2022-07-30T01:22:34.815Z,99653.78
2022-07-30T01:25:27.761Z,99648.63
2022-07-30T01:27:59.399Z,99653.94
2022-07-30T01:30:28.757Z,99646.91
2022-07-30T01:32:57.085Z,99649.28
2022-07-30T01:35:25.847Z,99652.59
2022-07-30T01:37:54.405Z,99651.28
2022-07-30T01:40:22.502Z,99654.94
2022-07-30T01:42:54.881Z,99660.63
2022-07-30T01:45:24.480Z,99665.31
2022-07-30T01:47:57.435Z,99666.97
2022-07-30T01:50:24.813Z,99662.13
2022-07-30T01:52:53.958Z,99668.31
2022-07-30T01:55:27.960Z,99670.00
2022-07-30T01:57:55.962Z,99670.47
2022-07-30T02:00:25.578Z,99670.31
2022-07-30T02:02:52.525Z,99663.28
2022-07-30T02:05:20.065Z,99674.34
2022-07-30T02:07:56.116Z,99665.63
2022-07-30T02:10:36.444Z,99678.34
2022-07-30T02:13:06.730Z,99666.66
2022-07-30T02:15:38.707Z,99663.63
2022-07-30T02:18:15.094Z,99674.31
2022-07-30T02:20:45.388Z,99670.47
2022-07-30T02:23:18.123Z,99668.66
2022-07-30T02:25:49.091Z,99671.34
2022-07-30T02:28:18.576Z,99668.31
2022-07-30T02:30:50.377Z,99665.66
2022-07-30T02:33:23.586Z,99665.97
2022-07-30T02:35:54.227Z,99667.66
2022-07-30T02:38:21.841Z,99670.00
2022-07-30T02:40:49.574Z,99663.66
2022-07-30T02:43:17.618Z,99667.81
2022-07-30T02:45:47.189Z,99677.97
2022-07-30T02:48:31.276Z,99678.97
2022-07-30T02:51:04.081Z,99671.31
2022-07-30T02:53:33.337Z,99675.31
2022-07-30T02:56:01.793Z,99685.50
2022-07-30T02:58:29.919Z,99676.41
2022-07-30T03:00:57.399Z,99671.06
2022-07-30T03:03:29.020Z,99675.53
2022-07-30T03:05:57.733Z,99665.03
2022-07-30T03:08:27.476Z,99677.59
2022-07-30T03:10:55.765Z,99673.72
2022-07-30T03:13:24.706Z,99676.72
2022-07-30T03:15:53.025Z,99678.41
2022-07-30T03:18:22.051Z,99673.38
2022-07-30T03:20:53.410Z,99685.91
2022-07-30T03:23:21.487Z,99676.19
2022-07-30T03:25:54.698Z,99680.19
2022-07-30T03:28:23.997Z,99676.16
2022-07-30T03:30:52.744Z,99684.88
2022-07-30T03:33:20.730Z,99679.03
2022-07-30T03:35:49.703Z,99675.00
2022-07-30T03:38:16.906Z,99680.19
2022-07-30T03:40:44.286Z,99684.53
2022-07-30T03:43:32.499Z,99700.00
2022-07-30T03:46:01.559Z,99690.16
2022-07-30T03:48:33.409Z,99693.63
2022-07-30T03:51:03.046Z,99694.16
2022-07-30T03:53:31.122Z,99697.97
2022-07-30T03:56:23.953Z,99699.28
2022-07-30T03:59:09.895Z,99708.47
2022-07-30T04:01:39.593Z,99706.63
2022-07-30T04:04:23.653Z,99715.06
2022-07-30T04:06:50.290Z,99711.81
2022-07-30T04:09:19.271Z,99718.56
2022-07-30T04:11:46.882Z,99723.28
2022-07-30T04:14:16.740Z,99721.41
2022-07-30T04:17:02.179Z,99733.09
2022-07-30T04:19:34.619Z,99723.06
2022-07-30T04:22:03.054Z,99730.75
2022-07-30T04:24:31.649Z,99735.75
2022-07-30T04:27:01.203Z,99742.38
2022-07-30T04:29:28.510Z,99742.00
2022-07-30T04:31:56.148Z,99745.34
2022-07-30T04:34:52.952Z,99749.00
2022-07-30T04:37:39.372Z,99754.59
2022-07-30T04:40:06.706Z,99756.13
2022-07-30T04:42:33.310Z,99753.09
2022-07-30T04:45:05.486Z,99755.28
2022-07-30T04:47:47.537Z,99759.53
2022-07-30T04:50:34.973Z,99761.66
2022-07-30T04:53:02.988Z,99768.88
2022-07-30T04:55:35.700Z,99770.06
2022-07-30T04:58:03.791Z,99765.72
2022-07-30T05:00:40.444Z,99770.06
2022-07-30T05:03:13.209Z,99772.44
2022-07-30T05:05:42.996Z,99770.78
2022-07-30T05:08:09.641Z,99771.13
2022-07-30T05:10:37.960Z,99772.16
2022-07-30T05:13:04.562Z,99770.38
2022-07-30T05:15:36.201Z,99770.56
2022-07-30T05:18:06.780Z,99774.06
2022-07-30T05:20:36.693Z,99778.56
2022-07-30T05:23:08.640Z,99777.94
2022-07-30T05:25:37.414Z,99780.94
2022-07-30T05:28:15.074Z,99781.25
2022-07-30T05:30:42.925Z,99783.03
2022-07-30T05:33:16.072Z,99783.22
2022-07-30T05:35:43.406Z,99783.31
2022-07-30T05:38:09.924Z,99779.47
2022-07-30T05:40:50.398Z,99778.31
2022-07-30T05:43:36.785Z,99781.13
2022-07-30T05:46:03.441Z,99786.69
2022-07-30T05:48:31.346Z,99791.19
2022-07-30T05:50:59.899Z,99789.66
2022-07-30T05:53:26.282Z,99798.56
2022-07-30T05:56:24.874Z,99786.72
2022-07-30T05:59:01.986Z,99788.78
2022-07-30T06:01:48.446Z,99789.97
2022-07-30T06:04:20.893Z,99799.69
2022-07-30T06:06:52.431Z,99794.88
2022-07-30T06:09:19.042Z,99794.88
2022-07-30T06:11:55.002Z,99796.91
2022-07-30T06:14:24.095Z,99790.94
2022-07-30T06:16:50.914Z,99804.97
2022-07-30T06:19:19.734Z,99806.66
2022-07-30T06:22:05.254Z,99808.88
2022-07-30T06:24:33.060Z,99801.03
2022-07-30T06:27:15.190Z,99809.72
2022-07-30T06:29:41.673Z,99801.03
2022-07-30T06:32:09.112Z,99805.03
2022-07-30T06:34:35.493Z,99805.03
2022-07-30T06:37:02.450Z,99808.88
2022-07-30T06:39:57.457Z,99797.69
2022-07-30T06:42:20.292Z,99801.06
2022-07-30T06:45:15.654Z,99817.78
2022-07-30T06:48:07.808Z,99810.09
2022-07-30T06:50:36.051Z,99807.22
2022-07-30T06:53:02.626Z,99809.75
2022-07-30T06:55:44.817Z,99809.56
2022-07-30T06:58:11.293Z,99808.53
2022-07-30T07:00:56.105Z,99810.34
2022-07-30T07:03:26.189Z,99809.97
2022-07-30T07:06:07.118Z,99814.31
2022-07-30T07:08:36.234Z,99810.94
2022-07-30T07:11:02.744Z,99808.06
2022-07-30T07:13:32.248Z,99811.06
2022-07-30T07:16:01.889Z,99808.88
2022-07-30T07:18:30.394Z,99808.69
2022-07-30T07:21:04.526Z,99807.81
2022-07-30T07:23:41.454Z,99806.75
2022-07-30T07:26:13.148Z,99811.06
2022-07-30T07:28:40.222Z,99808.84
2022-07-30T07:31:08.138Z,99815.66
2022-07-30T07:33:35.634Z,99815.59
2022-07-30T07:36:02.839Z,99815.22
2022-07-30T07:38:31.885Z,99810.78
2022-07-30T07:40:59.781Z,99807.56
2022-07-30T07:43:27.534Z,99813.03
2022-07-30T07:45:57.181Z,99803.22
2022-07-30T07:48:26.264Z,99811.03
2022-07-30T07:51:03.539Z,99813.47
2022-07-30T07:53:36.473Z,99802.44
2022-07-30T07:56:03.644Z,99813.28
2022-07-30T07:58:31.047Z,99816.97
2022-07-30T08:01:00.716Z,99805.16
2022-07-30T08:03:47.742Z,99800.53
2022-07-30T08:06:49.285Z,99789.59
2022-07-30T08:09:40.794Z,99800.53
2022-07-30T08:12:27.249Z,99803.09
2022-07-30T08:15:12.064Z,99802.78
2022-07-30T08:18:11.047Z,99799.44
2022-07-30T08:20:56.164Z,99798.69
2022-07-30T08:23:28.014Z,99804.16
2022-07-30T08:25:56.249Z,99809.22
2022-07-30T08:28:35.912Z,99808.03
2022-07-30T08:31:04.370Z,99806.44
2022-07-30T08:33:30.838Z,99810.03
2022-07-30T08:36:02.803Z,99804.47
2022-07-30T08:38:32.061Z,99809.53
2022-07-30T08:40:59.033Z,99815.06
2022-07-30T08:43:26.616Z,99807.25
2022-07-30T08:45:56.407Z,99814.66
2022-07-30T08:48:42.986Z,99814.81
2022-07-30T08:51:12.301Z,99811.41
2022-07-30T08:54:14.387Z,99801.91
2022-07-30T08:56:42.169Z,99812.38
2022-07-30T08:59:08.833Z,99806.88
2022-07-30T09:01:35.428Z,99807.34
2022-07-30T09:04:02.062Z,99802.69
2022-07-30T09:06:28.867Z,99806.25
2022-07-30T09:08:55.660Z,99807.56
2022-07-30T09:11:22.361Z,99808.25
2022-07-30T09:13:50.746Z,99814.31
2022-07-30T09:16:23.145Z,99819.19
2022-07-30T09:18:51.544Z,99816.28
2022-07-30T09:21:22.162Z,99813.81
2022-07-30T09:24:04.169Z,99810.91
2022-07-30T09:27:07.579Z,99804.13
2022-07-30T09:29:59.368Z,99805.41
2022-07-30T09:32:53.063Z,99808.19
2022-07-30T09:35:38.526Z,99808.03
2022-07-30T09:38:12.007Z,99806.38
2022-07-30T09:41:37.785Z,99797.63
2022-07-30T09:44:08.578Z,99809.63
2022-07-30T09:46:47.173Z,99809.31
2022-07-30T09:49:20.620Z,99815.22
2022-07-30T09:51:55.850Z,99811.78
2022-07-30T09:54:50.672Z,99808.38
2022-07-30T10:00:23.483Z,99809.31
2022-07-30T10:03:34.448Z,99814.84
2022-07-30T10:06:33.254Z,99816.78
2022-07-30T10:09:01.607Z,99821.44
2022-07-30T10:11:41.073Z,99819.75
2022-07-30T10:14:08.930Z,99807.94
2022-07-30T10:16:35.402Z,99810.59
2022-07-30T10:19:02.789Z,99802.56
2022-07-30T10:21:50.630Z,99808.28
2022-07-30T10:24:36.546Z,99807.34
2022-07-30T10:27:20.415Z,99812.75
2022-07-30T10:30:07.611Z,99808.84
2022-07-30T10:32:42.295Z,99804.06
2022-07-30T10:35:09.587Z,99806.13
2022-07-30T10:37:40.929Z,99809.59
2022-07-30T10:40:08.431Z,99806.41
2022-07-30T10:43:13.955Z,99804.44
2022-07-30T10:45:59.002Z,99805.81
2022-07-30T10:48:32.966Z,99810.34
2022-07-30T10:51:00.298Z,99797.03
2022-07-30T10:53:38.398Z,99805.31
2022-07-30T10:56:25.884Z,99800.00
2022-07-30T10:59:11.768Z,99798.78
2022-07-30T11:01:51.708Z,99789.63
2022-07-30T11:04:25.717Z,99791.75
2022-07-30T11:07:22.321Z,99788.19
2022-07-30T11:10:09.384Z,99791.59
2022-07-30T11:12:44.168Z,99793.72
2022-07-30T11:15:19.146Z,99797.69
2022-07-30T11:18:02.594Z,99796.00
2022-07-30T11:20:31.105Z,99792.84
2022-07-30T11:23:19.612Z,99787.53
2022-07-30T11:25:51.066Z,99786.63
2022-07-30T11:28:42.462Z,99787.22
2022-07-30T11:31:49.892Z,99788.59
2022-07-30T11:34:18.717Z,99787.00
2022-07-30T11:37:18.816Z,99789.94
2022-07-30T11:39:55.125Z,99789.56
2022-07-30T11:42:28.855Z,99790.00
2022-07-30T11:45:16.947Z,99782.47
2022-07-30T11:47:49.319Z,99788.72
2022-07-30T11:50:21.129Z,99782.72
2022-07-30T11:52:52.458Z,99793.09
2022-07-30T11:55:24.361Z,99777.91
2022-07-30T11:57:51.527Z,99784.56
2022-07-30T12:00:21.264Z,99786.47
2022-07-30T12:05:24.896Z,99783.13
2022-07-30T12:07:51.810Z,99789.19
2022-07-30T12:10:26.866Z,99787.28
2022-07-30T12:13:07.809Z,99776.31
2022-07-30T12:15:37.032Z,99774.19
2022-07-30T12:18:24.548Z,99766.28
2022-07-30T12:21:02.313Z,99774.22
2022-07-30T12:23:29.846Z,99759.34
2022-07-30T12:25:57.537Z,99763.00
2022-07-30T12:28:26.828Z,99761.19
2022-07-30T12:30:54.650Z,99764.41
2022-07-30T12:33:22.874Z,99773.28
2022-07-30T12:35:56.651Z,99765.97
2022-07-30T12:38:24.954Z,99769.00
2022-07-30T12:41:01.253Z,99761.47
2022-07-30T12:43:44.902Z,99759.94
2022-07-30T12:46:14.985Z,99762.94
2022-07-30T12:49:22.441Z,99765.44
2022-07-30T12:51:59.713Z,99767.53
2022-07-30T12:54:27.761Z,99770.00
2022-07-30T12:57:03.803Z,99771.06
2022-07-30T12:59:32.474Z,99763.88
2022-07-30T13:02:03.360Z,99767.38
2022-07-30T13:04:31.477Z,99747.72
2022-07-30T13:07:09.358Z,99764.84
2022-07-30T13:09:36.554Z,99765.69
2022-07-30T13:12:04.374Z,99763.56
2022-07-30T13:14:30.842Z,99753.94
2022-07-30T13:16:58.244Z,99765.00
2022-07-30T13:19:26.078Z,99753.13
2022-07-30T13:21:52.529Z,99757.03
2022-07-30T13:24:19.224Z,99752.22
2022-07-30T13:26:46.330Z,99757.44
2022-07-30T13:29:13.511Z,99747.84
2022-07-30T13:31:42.937Z,99745.75
2022-07-30T13:34:10.948Z,99750.41
2022-07-30T13:36:37.413Z,99752.97
2022-07-30T13:39:03.871Z,99748.81
2022-07-30T13:41:30.298Z,99747.16
2022-07-30T13:43:56.717Z,99751.28
2022-07-30T13:46:23.111Z,99745.88
2022-07-30T13:48:49.852Z,99740.56
2022-07-30T13:51:16.516Z,99744.19
2022-07-30T13:53:43.107Z,99745.06
2022-07-30T13:56:12.815Z,99746.66
2022-07-30T13:58:40.368Z,99739.34
2022-07-30T14:01:07.006Z,99738.72
2022-07-30T14:03:33.950Z,99735.16
2022-07-30T14:06:10.156Z,99740.13
2022-07-30T14:08:38.636Z,99730.97
2022-07-30T14:11:06.036Z,99737.81
2022-07-30T14:13:32.462Z,99729.75
2022-07-30T14:15:58.912Z,99725.16
2022-07-30T14:18:25.464Z,99729.31
2022-07-30T14:20:53.633Z,99722.59
2022-07-30T14:23:20.395Z,99729.31
2022-07-30T14:25:46.977Z,99722.53
2022-07-30T14:28:13.697Z,99718.59
2022-07-30T14:30:40.149Z,99713.00
2022-07-30T14:33:06.573Z,99716.16
2022-07-30T14:35:32.970Z,99722.44
2022-07-30T14:37:59.475Z,99722.50
2022-07-30T14:40:26.075Z,99730.84
2022-07-30T14:42:52.449Z,99722.31
2022-07-30T14:45:22.888Z,99707.31
2022-07-30T14:47:49.286Z,99723.38
2022-07-30T14:50:15.703Z,99713.44
2022-07-30T14:52:42.295Z,99719.63
2022-07-30T14:55:09.921Z,99719.25
2022-07-30T14:57:36.702Z,99714.69
2022-07-30T15:00:05.591Z,99718.81
2022-07-30T15:02:32.000Z,99725.50
2022-07-30T15:04:58.425Z,99725.50
2022-07-30T15:07:24.821Z,99730.97
2022-07-30T15:09:51.201Z,99732.22
2022-07-30T15:12:23.886Z,99733.06
2022-07-30T15:14:53.710Z,99736.38
2022-07-30T15:17:20.266Z,99726.75
2022-07-30T15:19:50.113Z,99733.44
2022-07-30T15:22:20.575Z,99725.94
2022-07-30T15:24:47.154Z,99740.09
2022-07-30T15:27:13.528Z,99731.13
2022-07-30T15:29:39.992Z,99730.53
2022-07-30T15:32:07.219Z,99744.53
2022-07-30T15:34:34.294Z,99736.88
2022-07-30T15:37:01.886Z,99744.16
2022-07-30T15:39:29.453Z,99733.19
2022-07-30T15:41:56.979Z,99734.03
2022-07-30T15:44:24.124Z,99742.78
2022-07-30T15:46:51.288Z,99739.94
2022-07-30T15:49:17.818Z,99741.16
2022-07-30T15:51:50.065Z,99751.63
2022-07-30T15:54:22.315Z,99742.69
2022-07-30T15:56:49.873Z,99737.50
2022-07-30T15:59:16.586Z,99750.63
2022-07-30T16:01:43.958Z,99742.94
2022-07-30T16:04:18.339Z,99750.41
2022-07-30T16:06:49.403Z,99745.88
2022-07-30T16:09:16.452Z,99745.47
2022-07-30T16:11:43.070Z,99732.16
2022-07-30T16:14:09.606Z,99737.56
2022-07-30T16:16:36.028Z,99738.41
2022-07-30T16:19:02.549Z,99731.97
2022-07-30T16:21:28.930Z,99735.47
2022-07-30T16:23:56.522Z,99728.00
2022-07-30T16:26:22.959Z,99721.53
2022-07-30T16:28:49.838Z,99729.66
2022-07-30T16:31:16.438Z,99720.13
2022-07-30T16:33:43.090Z,99723.00
2022-07-30T16:36:09.617Z,99723.66
2022-07-30T16:38:36.040Z,99715.53
2022-07-30T16:41:02.588Z,99716.81
2022-07-30T16:43:31.758Z,99719.69
2022-07-30T16:45:59.329Z,99718.69
2022-07-30T16:48:26.721Z,99722.22
2022-07-30T16:50:53.628Z,99721.78
2022-07-30T16:53:20.325Z,99729.31
2022-07-30T16:55:46.960Z,99727.22
2022-07-30T16:58:13.677Z,99724.97
2022-07-30T17:00:40.449Z,99728.69
2022-07-30T17:03:07.478Z,99735.97
2022-07-30T17:05:34.216Z,99729.53
2022-07-30T17:08:00.633Z,99739.91
2022-07-30T17:10:27.802Z,99742.84
2022-07-30T17:12:54.599Z,99745.13
2022-07-30T17:15:32.746Z,99745.13
2022-07-30T17:18:02.623Z,99743.88
2022-07-30T17:20:29.879Z,99749.69
2022-07-30T17:22:56.432Z,99751.13
2022-07-30T17:25:27.392Z,99742.84
2022-07-30T17:27:58.264Z,99749.28
2022-07-30T17:30:27.100Z,99753.81
2022-07-30T17:32:54.112Z,99748.44
2022-07-30T17:35:21.144Z,99750.09
2022-07-30T17:37:47.830Z,99745.09
2022-07-30T17:40:28.645Z,99747.38
2022-07-30T17:43:03.243Z,99744.69
2022-07-30T17:45:31.142Z,99749.44
2022-07-30T17:47:57.844Z,99751.56
2022-07-30T17:50:24.240Z,99761.28
2022-07-30T17:52:50.686Z,99757.75
2022-07-30T17:55:17.203Z,99757.34
2022-07-30T17:57:43.678Z,99751.94
2022-07-30T18:00:10.747Z,99755.47
2022-07-30T18:02:37.339Z,99752.97
2022-07-30T18:05:03.994Z,99754.81
2022-07-30T18:07:30.438Z,99762.09
2022-07-30T18:09:56.837Z,99762.91
2022-07-30T18:12:23.382Z,99765.59
2022-07-30T18:14:50.217Z,99766.84
2022-07-30T18:17:16.592Z,99758.53
2022-07-30T18:19:43.000Z,99763.94
2022-07-30T18:22:09.680Z,99766.59
2022-07-30T18:24:40.546Z,99769.50
2022-07-30T18:27:11.839Z,99773.22
2022-07-30T18:29:38.262Z,99770.31
2022-07-30T18:32:05.483Z,99784.00
2022-07-30T18:34:32.257Z,99777.94
2022-07-30T18:36:58.638Z,99781.47
2022-07-30T18:39:25.057Z,99784.13
2022-07-30T18:41:51.434Z,99794.50
2022-07-30T18:44:17.835Z,99788.84
2022-07-30T18:46:44.204Z,99788.84
2022-07-30T18:49:35.116Z,99791.72
2022-07-30T18:51:59.207Z,99789.41
2022-07-30T18:54:25.761Z,99792.28
2022-07-30T18:56:52.212Z,99796.63
2022-07-30T18:59:18.635Z,99794.53
2022-07-30T19:01:45.029Z,99801.16
2022-07-30T19:04:11.515Z,99801.75
2022-07-30T19:06:38.026Z,99796.09
2022-07-30T19:09:05.735Z,99799.59
2022-07-30T19:11:44.983Z,99792.91
2022-07-30T19:14:13.019Z,99797.03
2022-07-30T19:16:39.800Z,99800.94
2022-07-30T19:19:06.324Z,99808.78
2022-07-30T19:21:32.750Z,99808.16
2022-07-30T19:23:59.137Z,99809.19
2022-07-30T19:26:25.628Z,99810.81
2022-07-30T19:28:52.031Z,99812.66
2022-07-30T19:31:18.769Z,99822.78
2022-07-30T19:33:45.210Z,99824.22
2022-07-30T19:36:12.806Z,99839.72
2022-07-30T19:38:41.946Z,99829.59
2022-07-30T19:41:08.740Z,99823.56
2022-07-30T19:43:35.237Z,99835.38
2022-07-30T19:46:03.842Z,99833.94
2022-07-30T19:48:32.390Z,99842.22
2022-07-30T19:51:00.681Z,99839.84
2022-07-30T19:53:31.559Z,99844.56
2022-07-30T19:56:08.384Z,99847.09
2022-07-30T19:58:37.632Z,99843.97
2022-07-30T20:01:08.509Z,99847.28
2022-07-30T20:03:35.692Z,99854.97
2022-07-30T20:06:02.239Z,99844.41
2022-07-30T20:08:29.497Z,99846.31
2022-07-30T20:10:57.577Z,99845.94
2022-07-30T20:13:25.328Z,99860.63
2022-07-30T20:16:14.619Z,99846.53
2022-07-30T20:18:42.757Z,99850.03
2022-07-30T20:21:14.644Z,99843.81
2022-07-30T20:23:42.731Z,99851.53
2022-07-30T20:26:12.853Z,99850.03
2022-07-30T20:28:41.078Z,99846.13
2022-07-30T20:31:08.280Z,99847.59
2022-07-30T20:33:36.166Z,99848.25
2022-07-30T20:36:05.928Z,99856.75
2022-07-30T20:38:37.551Z,99859.41
2022-07-30T20:41:10.194Z,99858.38
2022-07-30T20:43:52.201Z,99862.88
2022-07-30T20:46:20.605Z,99865.94
2022-07-30T20:48:50.850Z,99870.91
2022-07-30T20:51:17.475Z,99882.28
2022-07-30T20:53:45.212Z,99882.28
2022-07-30T20:56:13.553Z,99876.44
2022-07-30T20:58:41.028Z,99876.00
2022-07-30T21:01:07.740Z,99881.41
2022-07-30T21:03:34.244Z,99879.28
2022-07-30T21:06:02.395Z,99877.41
2022-07-30T21:08:29.105Z,99881.13
2022-07-30T21:10:57.340Z,99879.66
2022-07-30T21:13:26.518Z,99877.75
2022-07-30T21:16:02.326Z,99872.91
2022-07-30T21:18:30.092Z,99870.41
2022-07-30T21:20:57.310Z,99878.69
2022-07-30T21:23:24.776Z,99870.78
2022-07-30T21:26:01.509Z,99868.00
2022-07-30T21:28:35.674Z,99871.47
2022-07-30T21:31:03.688Z,99878.88
2022-07-30T21:33:31.107Z,99880.66
2022-07-30T21:35:57.813Z,99877.97
2022-07-30T21:38:26.378Z,99872.91
2022-07-30T21:40:53.086Z,99876.16
2022-07-30T21:43:29.575Z,99884.31
2022-07-30T21:45:57.715Z,99882.38
2022-07-30T21:48:25.548Z,99882.47
2022-07-30T21:50:54.182Z,99883.69
2022-07-30T21:53:29.503Z,99872.94
2022-07-30T21:56:07.369Z,99872.72
2022-07-30T21:58:33.787Z,99875.41
2022-07-30T22:01:17.545Z,99874.88
2022-07-30T22:06:38.067Z,99858.66
2022-07-30T22:11:52.875Z,99878.03
2022-07-30T22:14:19.290Z,99868.28
2022-07-30T22:16:46.037Z,99868.94
2022-07-30T22:22:02.059Z,99876.81
2022-07-30T22:24:46.681Z,99882.50
2022-07-30T22:27:14.718Z,99881.41
2022-07-30T22:29:43.284Z,99875.41
2022-07-30T22:32:11.121Z,99872.72
2022-07-30T22:34:37.654Z,99876.88
2022-07-30T22:37:04.344Z,99877.44
2022-07-30T22:39:50.913Z,99881.69
2022-07-30T22:42:24.137Z,99876.22
2022-07-30T22:44:51.738Z,99875.00
2022-07-30T22:47:21.028Z,99869.06
2022-07-30T22:49:56.114Z,99872.56
2022-07-30T22:52:29.613Z,99872.97
2022-07-30T22:55:02.046Z,99867.88
2022-07-30T22:57:37.823Z,99872.41
2022-07-30T23:00:12.184Z,99872.97
2022-07-30T23:02:39.806Z,99872.97
2022-07-30T23:05:07.945Z,99875.66
2022-07-30T23:07:39.981Z,99877.28
2022-07-30T23:10:17.054Z,99883.06
2022-07-30T23:12:28.557Z,99874.78
2022-07-30T23:12:31.442Z,99866.53
2022-07-30T23:12:32.057Z,99866.25
2022-07-30T23:12:45.478Z,99873.13
2022-07-30T23:15:12.034Z,99872.88
2022-07-30T23:17:39.537Z,99870.44
2022-07-30T23:20:09.674Z,99866.63
2022-07-30T23:22:36.234Z,99869.88
2022-07-30T23:25:04.065Z,99866.19
2022-07-30T23:27:30.602Z,99863.31
2022-07-30T23:29:56.976Z,99860.38
2022-07-30T23:32:23.402Z,99869.25
2022-07-30T23:34:50.018Z,99870.91
2022-07-30T23:37:16.739Z,99867.06
2022-07-30T23:39:43.562Z,99868.00
2022-07-30T23:42:10.030Z,99859.16
2022-07-30T23:44:37.325Z,99861.03
2022-07-30T23:47:04.849Z,99857.13
2022-07-30T23:49:31.532Z,99858.03
2022-07-30T23:51:57.934Z,99866.28
2022-07-30T23:54:24.400Z,99864.78
2022-07-30T23:56:55.046Z,99860.03
2022-07-30T23:59:23.726Z,99856.44
